Time;durP1;ratioP1;P1;durP2;ratioP2;P2;SDS_P1;SDS_P2;PMS_P1;PMS_P2;Temp;Humidity;BMP_temperature;BMP_pressure;BME280_temperature;BME280_humidity;BME280_pressure;Samples;Min_cycle;Max_cycle;Signal;HPM_P1;HPM_P2
2021/04/01 00:02:31;;;;;;;23.30;11.02;;;;;;;13.33;36.19;101493.44;7927649;28;20061;-65
2021/04/01 00:06:21;;;;;;;21.23;11.23;;;;;;;13.28;36.13;101486.78;7935187;28;20088;-65
2021/04/01 00:10:15;;;;;;;18.88;10.50;;;;;;;13.25;36.23;101479.91;7932183;28;20029;-65
2021/04/01 00:14:06;;;;;;;22.25;11.52;;;;;;;13.21;36.30;101477.59;7929457;28;20040;-66
2021/04/01 00:17:57;;;;;;;25.70;11.68;;;;;;;13.17;36.42;101484.88;7926976;28;20050;-65
2021/04/01 00:21:48;;;;;;;24.58;11.55;;;;;;;13.11;36.51;101482.63;7933275;28;20054;-65
2021/04/01 00:25:38;;;;;;;21.63;11.02;;;;;;;13.06;36.64;101479.44;7928834;28;20530;-65
2021/04/01 00:29:29;;;;;;;22.55;11.45;;;;;;;13.05;36.58;101485.69;7927843;28;20069;-65
2021/04/01 00:33:20;;;;;;;19.05;10.43;;;;;;;13.02;36.99;101490.28;7930446;28;20042;-65
2021/04/01 00:37:11;;;;;;;19.40;10.93;;;;;;;12.98;36.76;101484.38;7928415;28;20100;-65
2021/04/01 00:41:01;;;;;;;21.90;12.25;;;;;;;12.93;36.84;101481.22;7924156;28;20041;-65
2021/04/01 00:45:01;;;;;;;18.77;10.82;;;;;;;12.91;36.89;101483.13;7928015;28;20537;-65
2021/04/01 00:48:52;;;;;;;20.17;11.25;;;;;;;12.87;37.13;101481.63;7927082;28;20383;-65
2021/04/01 00:52:42;;;;;;;20.40;10.93;;;;;;;12.85;37.00;101483.50;7931824;28;20470;-65
2021/04/01 00:56:33;;;;;;;22.30;10.40;;;;;;;12.79;36.96;101473.38;7928312;28;20030;-65
2021/04/01 01:00:26;;;;;;;19.15;10.52;;;;;;;12.76;37.11;101470.94;7924185;28;20051;-66
2021/04/01 01:04:17;;;;;;;21.80;11.60;;;;;;;12.76;37.22;101477.06;7928473;28;20065;-65
2021/04/01 01:08:08;;;;;;;25.08;11.90;;;;;;;12.74;37.42;101471.03;7922617;28;20495;-65
2021/04/01 01:11:59;;;;;;;22.38;10.85;;;;;;;12.71;37.37;101465.97;7941507;28;20048;-65
2021/04/01 01:15:49;;;;;;;23.58;12.15;;;;;;;12.69;37.40;101480.19;7925994;28;20053;-65
2021/04/01 01:19:41;;;;;;;21.40;10.95;;;;;;;12.68;37.51;101465.34;7926727;28;20044;-65
2021/04/01 01:23:32;;;;;;;27.45;11.23;;;;;;;12.65;37.51;101473.41;7920994;28;20413;-65
2021/04/01 01:27:22;;;;;;;22.88;11.25;;;;;;;12.62;37.50;101474.47;7932410;28;20121;-65
2021/04/01 01:31:14;;;;;;;23.35;12.40;;;;;;;12.58;37.61;101469.50;7929002;28;20042;-65
2021/04/01 01:35:15;;;;;;;19.98;11.32;;;;;;;12.56;37.83;101472.19;7933410;28;20660;-65
2021/04/01 01:39:05;;;;;;;19.75;11.13;;;;;;;12.54;37.74;101474.94;7933194;28;20037;-65
2021/04/01 01:42:59;;;;;;;23.90;11.70;;;;;;;12.52;37.77;101473.34;7932388;28;20037;-65
2021/04/01 01:46:50;;;;;;;22.52;12.30;;;;;;;12.48;37.85;101469.22;7946774;28;20056;-65
2021/04/01 01:50:41;;;;;;;23.42;12.38;;;;;;;12.47;37.98;101462.28;7933442;28;20039;-65
2021/04/01 01:54:31;;;;;;;25.10;12.68;;;;;;;12.45;37.97;101461.50;7933030;28;20038;-65
2021/04/01 01:58:23;;;;;;;26.85;12.32;;;;;;;12.39;37.91;101452.19;7933276;28;20030;-65
2021/04/01 02:02:14;;;;;;;25.35;13.32;;;;;;;12.41;38.18;101449.47;7931662;28;20042;-65
2021/04/01 02:06:06;;;;;;;22.77;12.27;;;;;;;12.39;38.13;101449.56;7932429;28;20095;-65
2021/04/01 02:09:56;;;;;;;26.30;12.90;;;;;;;12.39;38.28;101446.94;7926876;28;20031;-66
2021/04/01 02:13:47;;;;;;;26.08;11.23;;;;;;;12.33;38.38;101444.72;7936765;28;20045;-65
2021/04/01 02:17:39;;;;;;;21.80;11.60;;;;;;;12.32;38.54;101450.91;7936183;28;20049;-65
2021/04/01 02:21:29;;;;;;;20.98;11.40;;;;;;;12.28;38.44;101444.16;7930232;28;20074;-65
2021/04/01 02:25:20;;;;;;;25.45;11.77;;;;;;;12.25;38.35;101444.34;7930798;28;20050;-65
2021/04/01 02:29:11;;;;;;;24.85;11.77;;;;;;;12.24;38.48;101447.09;7931062;28;20041;-65
2021/04/01 02:33:01;;;;;;;28.40;12.63;;;;;;;12.20;38.50;101440.31;7929317;28;20192;-65
2021/04/01 02:36:52;;;;;;;20.25;11.38;;;;;;;12.17;38.66;101443.16;7931136;28;20044;-65
2021/04/01 02:40:42;;;;;;;23.65;11.68;;;;;;;12.15;38.71;101439.75;7928268;28;20038;-66
2021/04/01 02:44:33;;;;;;;22.42;12.25;;;;;;;12.07;38.80;101438.47;7932075;28;20065;-65
2021/04/01 02:48:25;;;;;;;22.40;11.80;;;;;;;12.06;38.85;101439.41;7931159;28;20037;-65
2021/04/01 02:52:16;;;;;;;24.58;11.60;;;;;;;12.06;38.85;101446.47;7923896;28;20064;-66
2021/04/01 02:56:07;;;;;;;20.58;11.00;;;;;;;12.05;38.83;101440.38;7933478;28;20487;-65
2021/04/01 03:00:02;;;;;;;22.27;11.30;;;;;;;12.04;38.87;101441.31;7928283;28;20038;-65
2021/04/01 03:03:55;;;;;;;29.45;12.50;;;;;;;11.98;38.84;101436.41;7923469;28;20054;-65
2021/04/01 03:07:46;;;;;;;22.50;11.13;;;;;;;11.99;38.98;101437.25;7933764;28;20556;-65
2021/04/01 03:11:36;;;;;;;21.65;11.60;;;;;;;11.97;39.21;101433.91;7926527;28;20498;-65
2021/04/01 03:15:27;;;;;;;23.90;12.23;;;;;;;11.96;39.09;101448.00;7931260;28;20034;-65
2021/04/01 03:19:18;;;;;;;31.48;12.43;;;;;;;11.93;39.15;101445.56;7928756;28;20037;-65
2021/04/01 03:23:09;;;;;;;21.70;11.23;;;;;;;11.92;38.83;101447.34;7934390;28;20524;-65
2021/04/01 03:26:59;;;;;;;20.98;11.07;;;;;;;11.90;39.40;101451.84;7930663;28;20048;-65
2021/04/01 03:31:02;;;;;;;24.35;11.60;;;;;;;11.88;39.27;101447.63;7929111;28;20042;-65
2021/04/01 03:34:53;;;;;;;22.80;11.40;;;;;;;11.85;39.51;101447.81;7930431;28;20042;-65
2021/04/01 03:38:46;;;;;;;21.75;11.40;;;;;;;11.83;39.62;101442.66;7928054;28;20042;-65
2021/04/01 03:42:38;;;;;;;23.73;11.93;;;;;;;11.82;39.40;101448.84;7929996;28;20035;-65
2021/04/01 03:46:28;;;;;;;21.13;11.48;;;;;;;11.80;39.63;101447.25;7929104;28;20097;-65
2021/04/01 03:50:20;;;;;;;19.85;10.98;;;;;;;11.77;39.72;101443.00;7929437;28;20034;-65
2021/04/01 03:54:10;;;;;;;21.40;11.55;;;;;;;11.76;39.81;101451.03;7929681;28;20049;-65
2021/04/01 04:06:16;;;;;;;22.85;12.25;;;;;;;11.67;39.95;101449.81;7925618;28;20030;-65
2021/04/01 04:10:24;;;;;;;27.45;12.50;;;;;;;11.66;39.83;101444.63;7923519;28;20054;-65
2021/04/01 04:18:11;;;;;;;25.55;10.50;;;;;;;11.59;39.95;101465.22;7928742;28;20042;-65
2021/04/01 04:22:02;;;;;;;22.08;12.10;;;;;;;11.58;40.33;101466.16;7921347;28;20039;-65
2021/04/01 04:25:54;;;;;;;25.58;11.60;;;;;;;11.59;40.03;101465.22;7934743;28;20120;-65
2021/04/01 04:29:45;;;;;;;23.95;11.73;;;;;;;11.58;40.18;101466.16;7927088;28;20110;-65
2021/04/01 04:33:36;;;;;;;20.30;10.60;;;;;;;11.57;40.21;101473.19;7927502;28;20495;-65
2021/04/01 04:37:27;;;;;;;22.15;12.50;;;;;;;11.53;40.20;101465.53;7928053;28;20042;-66
2021/04/01 04:41:18;;;;;;;26.70;11.40;;;;;;;11.54;39.85;101475.13;7926779;28;20041;-65
2021/04/01 04:45:09;;;;;;;26.02;12.38;;;;;;;11.52;40.28;101477.03;7927415;28;20344;-65
2021/04/01 04:49:00;;;;;;;21.58;11.65;;;;;;;11.50;40.01;101473.63;7927572;28;20066;-65
2021/04/01 04:52:50;;;;;;;24.08;11.95;;;;;;;11.47;40.43;101477.31;7928662;28;20036;-65
2021/04/01 04:56:41;;;;;;;24.88;12.48;;;;;;;11.43;40.58;101480.19;7916449;28;20046;-65
2021/04/01 05:04:41;;;;;;;23.92;12.30;;;;;;;11.37;40.51;101484.03;7928492;28;20045;-65
2021/04/01 05:08:32;;;;;;;27.23;11.60;;;;;;;11.34;40.54;101484.22;7927892;28;20107;-65
2021/04/01 05:12:23;;;;;;;24.13;11.73;;;;;;;11.32;40.48;101498.38;7927505;28;20083;-64
2021/04/01 05:16:14;;;;;;;25.85;11.90;;;;;;;11.29;40.46;101503.84;7927058;28;20426;-64
2021/04/01 05:20:07;;;;;;;26.08;12.48;;;;;;;11.25;40.67;101491.81;7922285;28;20046;-65
2021/04/01 05:24:01;;;;;;;29.70;11.82;;;;;;;11.21;40.59;101506.94;7923224;28;20048;-65
2021/04/01 05:27:55;;;;;;;31.20;12.15;;;;;;;11.18;40.65;101501.84;7927935;28;20034;-65
2021/04/01 05:31:48;;;;;;;27.42;12.80;;;;;;;11.11;40.68;101505.75;7924270;28;20542;-65
2021/04/01 05:35:43;;;;;;;22.27;11.43;;;;;;;11.09;40.67;101508.50;7925205;28;20073;-65
2021/04/01 05:39:37;;;;;;;21.38;11.50;;;;;;;11.06;40.75;101516.56;7925217;28;20069;-65
2021/04/01 05:43:32;;;;;;;22.50;11.45;;;;;;;11.02;40.61;101512.41;7925994;28;20037;-65
2021/04/01 05:51:47;;;;;;;25.65;12.40;;;;;;;10.99;40.56;101535.38;7933849;28;20034;-65
2021/04/01 06:04:07;;;;;;;23.27;11.98;;;;;;;11.03;40.87;101558.78;7926476;28;20535;-65
2021/04/01 06:08:10;;;;;;;21.23;10.23;;;;;;;11.07;41.14;101552.41;7932237;28;20042;-65
2021/04/01 06:12:00;;;;;;;20.67;11.40;;;;;;;11.12;41.19;101553.00;7924061;28;20031;-65
2021/04/01 06:15:51;;;;;;;22.55;11.23;;;;;;;11.24;41.23;101556.72;7930104;28;20053;-65
2021/04/01 06:19:47;;;;;;;21.88;11.25;;;;;;;11.35;41.17;101561.38;7945855;28;20121;-65
2021/04/01 06:23:42;;;;;;;22.90;10.55;;;;;;;11.46;41.29;101551.03;7929164;28;20038;-65
2021/04/01 06:27:41;;;;;;;25.20;11.60;;;;;;;11.67;41.42;101533.16;7931975;28;20038;-64
2021/04/01 06:31:41;;;;;;;21.30;11.80;;;;;;;11.96;41.58;101551.53;7933981;28;20119;-65
2021/04/01 06:35:40;;;;;;;23.55;12.40;;;;;;;12.22;41.50;101560.47;7916062;28;20049;-64
2021/04/01 06:39:30;;;;;;;26.73;12.95;;;;;;;12.57;40.99;101555.59;7934455;28;20049;-65
2021/04/01 06:43:55;;;;;;;27.45;12.50;;;;;;;13.06;41.23;101544.53;7930389;28;20040;-65
2021/04/01 06:47:50;;;;;;;23.58;12.45;;;;;;;13.75;41.55;101547.78;7930960;28;20706;-65
2021/04/01 06:51:56;;;;;;;27.35;13.98;;;;;;;14.46;41.41;101541.91;7930727;28;20122;-65
2021/04/01 06:56:03;;;;;;;32.63;16.20;;;;;;;15.27;41.02;101545.53;7929289;28;20034;-65
2021/04/01 07:04:29;;;;;;;31.73;16.48;;;;;;;16.92;40.54;101546.69;7925249;28;21392;-65
2021/04/01 07:08:30;;;;;;;;;;;;;;;17.60;40.89;101550.72;7931142;28;20068;-65
2021/04/01 07:12:28;;;;;;;27.80;14.13;;;;;;;18.48;39.81;101545.72;7928758;28;20012;-65
2021/04/01 07:17:07;;;;;;;27.52;15.07;;;;;;;19.17;38.83;101528.72;7929872;28;20085;-65
2021/04/01 07:50:24;;;;;;;33.58;19.58;;;;;;;24.74;33.44;101545.31;7928377;28;20042;-65
2021/04/01 07:54:16;;;;;;;31.58;18.73;;;;;;;25.34;33.03;101548.06;7929344;28;20041;-66
2021/04/01 07:58:48;;;;;;;40.20;20.67;;;;;;;26.02;32.36;101539.00;7929153;28;20096;-66
2021/04/01 08:06:37;;;;;;;33.03;19.48;;;;;;;27.33;30.70;101545.03;7928030;28;20038;-66
2021/04/01 08:10:32;;;;;;;38.35;21.02;;;;;;;27.85;29.83;101537.31;7930489;28;20026;-66
2021/04/01 08:14:33;;;;;;;39.33;21.13;;;;;;;28.40;29.00;101538.22;7931547;28;20035;-66
2021/04/01 08:18:33;;;;;;;45.33;22.55;;;;;;;28.97;28.54;101534.22;7927234;28;20050;-66
2021/04/01 08:22:27;;;;;;;38.42;20.15;;;;;;;29.51;27.79;101537.56;7932328;28;20048;-66
2021/04/01 08:38:18;;;;;;;35.75;15.88;;;;;;;31.39;25.29;101540.63;7926293;28;20074;-65
2021/04/01 08:42:46;;;;;;;32.03;15.82;;;;;;;31.85;24.18;101539.34;7926275;28;20042;-65
2021/04/01 08:47:13;;;;;;;40.22;16.00;;;;;;;32.27;24.11;101545.78;7926832;28;20037;-66
2021/04/01 08:51:37;;;;;;;27.40;14.00;;;;;;;32.54;23.29;101540.81;7921241;28;20045;-65
2021/04/01 08:55:39;;;;;;;29.67;14.85;;;;;;;32.68;23.23;101542.31;7913191;28;20034;-65
2021/04/01 08:59:46;;;;;;;29.13;14.57;;;;;;;32.79;23.07;101550.50;7933353;28;20032;-66
2021/04/01 09:03:37;;;;;;;29.85;13.35;;;;;;;32.92;22.81;101543.19;7924066;28;20039;-66
2021/04/01 09:07:41;;;;;;;28.70;13.02;;;;;;;32.92;22.34;101532.28;7927841;28;20062;-66
2021/04/01 09:15:44;;;;;;;;;;;;;;;32.62;23.91;101549.47;7926728;28;20046;-66
2021/04/01 09:19:36;;;;;;;25.25;11.65;;;;;;;32.83;22.83;101551.69;7926529;28;19924;-66
2021/04/01 09:23:36;;;;;;;27.08;12.13;;;;;;;32.96;22.00;101555.25;7926398;28;20038;-63
2021/04/01 09:27:27;;;;;;;29.27;12.40;;;;;;;32.98;22.06;101548.53;7926898;28;20566;-64
2021/04/01 09:31:20;;;;;;;28.70;12.43;;;;;;;32.74;22.00;101549.50;7930331;28;20034;-63
2021/04/01 09:35:11;;;;;;;30.98;13.57;;;;;;;31.99;22.06;101554.44;7927071;28;20430;-63
2021/04/01 09:39:35;;;;;;;33.55;13.50;;;;;;;31.10;21.91;101535.84;7927335;28;20455;-63
2021/04/01 09:43:22;;;;;;;30.52;13.90;;;;;;;30.09;22.46;101553.91;7929210;28;20060;-63
2021/04/01 09:47:23;;;;;;;26.50;13.75;;;;;;;29.32;22.61;101553.81;7933412;28;20040;-66
2021/04/01 09:51:19;;;;;;;29.98;14.20;;;;;;;28.55;22.52;101546.16;7933895;28;20034;-65
2021/04/01 09:55:14;;;;;;;37.87;16.13;;;;;;;27.90;23.19;101547.53;7932382;28;20031;-65
2021/04/01 09:59:05;;;;;;;35.55;16.35;;;;;;;27.36;23.09;101552.72;7932576;28;20038;-66
2021/04/01 10:03:07;;;;;;;37.22;15.00;;;;;;;26.85;23.46;101552.00;7946583;28;20057;-65
2021/04/01 10:06:58;;;;;;;31.58;15.35;;;;;;;26.38;23.77;101560.59;7931092;28;20477;-65
2021/04/01 10:10:51;;;;;;;32.83;15.85;;;;;;;25.98;24.08;101560.03;7932928;28;20521;-66
2021/04/01 10:14:50;;;;;;;31.83;14.98;;;;;;;25.64;23.94;101557.91;7932395;28;20076;-66
2021/04/01 10:18:41;;;;;;;36.70;15.93;;;;;;;25.34;24.12;101561.53;7934806;28;20137;-65
2021/04/01 10:22:35;;;;;;;30.15;13.48;;;;;;;25.03;24.30;101553.53;7931045;28;20044;-66
2021/04/01 10:26:35;;;;;;;34.67;16.35;;;;;;;24.78;24.48;101557.38;7931410;28;20396;-65
2021/04/01 10:30:34;;;;;;;39.90;15.77;;;;;;;24.55;24.90;101549.31;7930016;28;20049;-65
2021/04/01 10:34:30;;;;;;;32.47;14.02;;;;;;;24.35;24.63;101553.44;7930541;28;20184;-65
2021/04/01 10:38:22;;;;;;;32.87;14.90;;;;;;;24.14;24.86;101550.47;7931876;28;20510;-65
2021/04/01 10:42:14;;;;;;;38.63;15.73;;;;;;;23.97;25.13;101562.28;7932367;28;20110;-66
2021/04/01 10:46:06;;;;;;;35.17;15.02;;;;;;;23.84;25.23;101555.59;7931406;28;20081;-65
2021/04/01 10:49:59;;;;;;;43.70;16.13;;;;;;;23.74;25.33;101551.44;7934432;28;20062;-65
2021/04/01 10:53:50;;;;;;;33.80;15.15;;;;;;;23.63;25.23;101570.53;7925985;28;20041;-65
2021/04/01 10:57:41;;;;;;;34.67;13.90;;;;;;;23.52;25.26;101555.63;7931536;28;20043;-65
2021/04/01 11:01:41;;;;;;;27.52;13.45;;;;;;;23.46;25.80;101553.63;7926694;28;20534;-66
2021/04/01 11:05:35;;;;;;;45.60;15.65;;;;;;;23.39;25.54;101564.19;7934790;28;20189;-65
2021/04/01 11:09:29;;;;;;;33.13;16.60;;;;;;;23.30;25.70;101567.03;7931131;28;20022;-66
2021/04/01 11:13:21;;;;;;;36.90;17.40;;;;;;;23.23;25.76;101563.34;7930047;28;20041;-66
2021/04/01 11:17:23;;;;;;;36.10;16.73;;;;;;;23.10;26.03;101557.66;7921597;28;20081;-66
2021/04/01 11:21:15;;;;;;;41.22;18.33;;;;;;;23.07;26.08;101560.66;7930339;28;20038;-66
2021/04/01 11:25:11;;;;;;;41.83;19.20;;;;;;;22.99;26.03;101564.97;7931149;28;20477;-66
2021/04/01 11:29:11;;;;;;;44.00;18.55;;;;;;;22.87;26.33;101546.72;7926121;28;20046;-66
2021/04/01 11:33:03;;;;;;;45.22;19.48;;;;;;;22.89;26.39;101568.81;7933020;28;20128;-66
2021/04/01 11:36:54;;;;;;;47.97;20.20;;;;;;;22.82;26.38;101565.97;7936099;28;20048;-66
2021/04/01 11:40:56;;;;;;;43.35;19.55;;;;;;;22.75;26.65;101564.94;7916140;28;20759;-66
2021/04/01 11:44:49;;;;;;;43.75;20.08;;;;;;;22.69;26.69;101562.94;7920126;28;20038;-66
2021/04/01 11:48:40;;;;;;;47.55;21.77;;;;;;;22.64;26.81;101565.25;7932560;28;20030;-66
2021/04/01 11:52:31;;;;;;;45.90;21.08;;;;;;;22.56;26.74;101557.19;7926817;28;20037;-66
2021/04/01 11:56:23;;;;;;;50.03;19.67;;;;;;;22.49;26.77;101567.72;7926219;28;20034;-66
2021/04/01 12:00:26;;;;;;;44.95;19.88;;;;;;;22.42;26.64;101561.28;7927063;28;20458;-65
2021/04/01 12:04:18;;;;;;;45.45;19.30;;;;;;;22.31;26.86;101566.09;7935525;28;20111;-66
2021/04/01 12:08:09;;;;;;;43.28;20.10;;;;;;;22.21;26.69;101560.88;7935539;28;20168;-66
2021/04/01 12:12:00;;;;;;;49.80;20.30;;;;;;;22.13;26.57;101554.66;7922207;28;20034;-66
2021/04/01 12:15:51;;;;;;;50.67;21.08;;;;;;;22.07;27.03;101558.81;7931952;28;20052;-66
2021/04/01 12:19:44;;;;;;;47.10;19.92;;;;;;;22.00;26.86;101560.47;7937191;28;20025;-65
2021/04/01 12:23:47;;;;;;;43.00;17.88;;;;;;;21.92;26.91;101561.25;7914927;28;20078;-65
2021/04/01 12:27:37;;;;;;;47.30;22.15;;;;;;;21.85;27.17;101554.84;7924821;28;20041;-66
2021/04/01 12:31:34;;;;;;;45.13;20.70;;;;;;;21.78;27.23;101564.47;7926747;28;20462;-65
2021/04/01 12:35:25;;;;;;;51.70;24.10;;;;;;;21.69;27.51;101561.91;7922950;28;20038;-66
2021/04/01 12:39:26;;;;;;;42.67;22.13;;;;;;;21.67;28.20;101567.41;7915180;28;20030;-65
2021/04/01 12:43:17;;;;;;;51.33;26.02;;;;;;;21.59;27.92;101576.22;7928578;28;20526;-65
2021/04/01 12:47:08;;;;;;;52.20;23.75;;;;;;;21.55;28.10;101577.50;7925613;28;20049;-65
2021/04/01 12:51:00;;;;;;;48.60;24.40;;;;;;;21.50;28.26;101574.47;7941913;28;20042;-66
2021/04/01 12:54:51;;;;;;;48.97;25.20;;;;;;;21.46;28.13;101580.31;7925959;28;20052;-65
2021/04/01 12:58:47;;;;;;;49.97;24.58;;;;;;;21.40;28.36;101571.06;7915755;28;20085;-66
2021/04/01 13:02:37;;;;;;;50.03;24.95;;;;;;;21.33;28.42;101574.50;7931914;28;20050;-66
2021/04/01 13:06:48;;;;;;;51.65;25.38;;;;;;;21.21;28.88;101568.56;7940979;28;20073;-66
2021/04/01 13:10:39;;;;;;;56.58;27.45;;;;;;;21.18;28.57;101584.84;7934400;28;20070;-66
2021/04/01 13:14:30;;;;;;;52.03;26.45;;;;;;;21.12;28.71;101575.63;7912199;28;20030;-66
2021/04/01 13:18:21;;;;;;;59.05;29.83;;;;;;;21.06;28.68;101586.06;7908898;28;20053;-66
2021/04/01 13:26:21;;;;;;;53.90;27.35;;;;;;;20.86;29.00;101589.88;7940779;28;20644;-66
2021/04/01 13:30:12;;;;;;;59.53;29.45;;;;;;;20.75;29.06;101592.78;7930776;28;20034;-66
2021/04/01 13:34:19;;;;;;;57.03;27.67;;;;;;;20.70;28.85;101603.91;7933318;28;20083;-66
2021/04/01 13:38:16;;;;;;;52.13;26.92;;;;;;;20.55;29.10;101594.72;7930208;28;20034;-66
2021/04/01 13:42:23;;;;;;;44.00;22.83;;;;;;;20.47;28.95;101607.94;7932301;28;20108;-66
2021/04/01 13:46:15;;;;;;;36.10;18.90;;;;;;;20.36;28.92;101608.13;7929822;28;20042;-66
2021/04/01 13:50:06;;;;;;;38.25;18.05;;;;;;;20.27;28.88;101597.34;7931880;28;20045;-66
2021/04/01 13:54:12;;;;;;;27.42;14.23;;;;;;;20.15;29.14;101590.50;7933647;28;20037;-66
2021/04/01 14:10:49;;;;;;;14.20;6.30;;;;;;;19.84;28.82;101610.38;7932883;28;20089;-65
2021/04/01 14:14:39;;;;;;;18.48;7.10;;;;;;;19.77;29.24;101602.09;7929795;28;20029;-65
2021/04/01 14:18:34;;;;;;;14.13;6.68;;;;;;;19.72;29.20;101598.19;7932503;28;20037;-65
2021/04/01 14:22:26;;;;;;;10.75;5.95;;;;;;;19.69;29.31;101606.47;7929571;28;20038;-66
2021/04/01 14:30:16;;;;;;;11.82;5.82;;;;;;;19.50;29.25;101610.00;7923235;28;20034;-66
2021/04/01 14:34:07;;;;;;;10.98;5.57;;;;;;;19.48;29.40;101614.63;7930284;28;20034;-66
2021/04/01 14:38:04;;;;;;;8.73;4.68;;;;;;;19.42;29.32;101617.03;7922020;28;20034;-66
2021/04/01 14:42:00;;;;;;;17.13;4.95;;;;;;;19.34;29.62;101612.41;7923439;28;20669;-66
2021/04/01 14:45:51;;;;;;;11.57;4.45;;;;;;;19.26;29.91;101604.28;7929932;28;20060;-66
2021/04/01 14:49:44;;;;;;;7.03;3.92;;;;;;;19.17;29.72;101619.25;7929917;28;20512;-66
2021/04/01 14:53:48;;;;;;;8.13;3.67;;;;;;;19.09;29.78;101611.09;7925981;28;20499;-66
2021/04/01 14:57:49;;;;;;;10.38;2.85;;;;;;;19.02;29.96;101609.13;7933412;28;20034;-66
2021/04/01 15:01:41;;;;;;;7.32;2.63;;;;;;;18.96;29.86;101621.16;7931771;28;20046;-65
2021/04/01 15:05:34;;;;;;;9.60;2.40;;;;;;;18.90;29.98;101622.53;7918900;28;20467;-65
2021/04/01 15:09:25;;;;;;;9.32;2.22;;;;;;;18.81;29.94;101618.03;7937170;28;20042;-65
2021/04/01 15:13:17;;;;;;;5.85;2.50;;;;;;;18.72;30.49;101620.69;7937942;28;20484;-65
2021/04/01 15:17:09;;;;;;;5.32;2.67;;;;;;;18.68;30.23;101622.78;7924871;28;20137;-65
2021/04/01 15:21:00;;;;;;;8.43;2.90;;;;;;;18.60;30.54;101627.94;7917073;28;20045;-65
2021/04/01 15:24:50;;;;;;;13.60;2.95;;;;;;;18.50;30.40;101627.06;7923526;28;20050;-65
2021/04/01 15:28:41;;;;;;;8.65;2.42;;;;;;;18.40;30.58;101626.97;7925575;28;20495;-65
2021/04/01 15:32:32;;;;;;;5.45;2.28;;;;;;;18.36;30.49;101638.03;7917741;28;20046;-65
2021/04/01 15:36:23;;;;;;;8.35;2.00;;;;;;;18.29;30.50;101642.19;7929009;28;20030;-65
2021/04/01 15:40:14;;;;;;;3.90;1.73;;;;;;;18.22;30.71;101641.06;7930904;28;20125;-64
2021/04/01 15:44:06;;;;;;;7.47;2.40;;;;;;;18.15;30.89;101646.03;7929735;28;20132;-64
2021/04/01 15:47:56;;;;;;;7.47;2.25;;;;;;;18.08;30.96;101650.19;7929367;28;20125;-65
2021/04/01 15:51:47;;;;;;;5.85;2.35;;;;;;;17.98;30.55;101650.13;7919400;28;20042;-64
2021/04/01 15:55:38;;;;;;;8.98;2.42;;;;;;;17.92;31.08;101644.50;7923350;28;20054;-64
2021/04/01 15:59:28;;;;;;;5.13;2.28;;;;;;;17.85;30.73;101659.31;7928735;28;20034;-64
2021/04/01 16:03:19;;;;;;;5.05;2.30;;;;;;;17.73;31.13;101658.53;7923175;28;20081;-64
2021/04/01 16:07:10;;;;;;;4.38;2.25;;;;;;;17.65;31.21;101658.28;7930482;28;20034;-64
2021/04/01 16:11:02;;;;;;;4.88;2.08;;;;;;;17.52;31.11;101658.47;7927591;28;20030;-64
2021/04/01 16:14:53;;;;;;;2.60;1.70;;;;;;;17.45;31.24;101648.47;7927535;28;20061;-64
2021/04/01 16:18:44;;;;;;;7.25;2.00;;;;;;;17.39;31.42;101651.63;7925360;28;20533;-65
2021/04/01 16:22:34;;;;;;;4.93;2.10;;;;;;;17.36;31.40;101657.22;7927472;28;20030;-67
2021/04/01 16:26:25;;;;;;;7.43;2.90;;;;;;;17.27;31.39;101658.81;7927480;28;20677;-66
2021/04/01 16:30:16;;;;;;;3.65;1.90;;;;;;;17.20;31.29;101660.25;7924831;28;20073;-67
2021/04/01 16:34:07;;;;;;;3.47;1.63;;;;;;;17.13;31.32;101667.03;7926317;28;20034;-66
2021/04/01 16:37:58;;;;;;;5.72;1.70;;;;;;;17.04;31.21;101668.63;7928391;28;20108;-67
2021/04/01 16:41:50;;;;;;;1.90;1.15;;;;;;;16.96;31.09;101671.06;7930492;28;20040;-66
2021/04/01 16:45:42;;;;;;;2.83;1.50;;;;;;;16.84;31.05;101677.31;7926591;28;20038;-66
2021/04/01 16:49:33;;;;;;;9.85;1.73;;;;;;;16.72;31.01;101674.78;7924717;28;20034;-65
2021/04/01 16:53:28;;;;;;;2.60;1.38;;;;;;;16.64;31.15;101678.06;7919309;28;20036;-67
2021/04/01 16:57:20;;;;;;;6.88;1.85;;;;;;;16.52;31.06;101671.91;7912476;28;20042;-67
2021/04/01 17:01:11;;;;;;;5.75;1.35;;;;;;;16.50;31.20;101695.06;7929387;28;20578;-67
2021/04/01 17:05:02;;;;;;;3.53;1.30;;;;;;;16.42;31.18;101696.59;7927257;28;20045;-66
2021/04/01 17:08:52;;;;;;;2.53;1.13;;;;;;;16.33;31.18;101698.16;7925539;28;20108;-66
2021/04/01 17:12:43;;;;;;;3.30;1.20;;;;;;;16.30;30.79;101702.88;7927825;28;20038;-66
2021/04/01 17:16:34;;;;;;;4.90;1.60;;;;;;;16.21;30.72;101703.56;7927130;28;20046;-66
2021/04/01 17:20:27;;;;;;;5.45;1.15;;;;;;;16.09;30.82;101711.47;7927054;28;20103;-65
2021/04/01 17:24:18;;;;;;;2.42;0.98;;;;;;;16.02;30.71;101704.09;7926905;28;20057;-65
2021/04/01 17:28:09;;;;;;;2.90;1.35;;;;;;;15.95;30.63;101711.69;7929785;28;20521;-65
2021/04/01 17:32:00;;;;;;;1.77;1.20;;;;;;;15.87;30.62;101716.69;7923033;28;20084;-65
2021/04/01 17:35:50;;;;;;;3.15;1.10;;;;;;;15.81;30.50;101719.81;7926521;28;20042;-66
2021/04/01 17:39:41;;;;;;;8.77;1.20;;;;;;;15.76;30.29;101718.47;7926856;28;20502;-66
2021/04/01 17:43:33;;;;;;;6.53;1.65;;;;;;;15.68;30.47;101719.88;7929194;28;20042;-65
2021/04/01 17:47:24;;;;;;;4.07;1.10;;;;;;;15.60;30.31;101730.19;7925750;28;20406;-66
2021/04/01 17:51:15;;;;;;;4.60;1.05;;;;;;;15.50;30.58;101729.16;7925741;28;20037;-66
2021/04/01 17:55:07;;;;;;;3.10;1.10;;;;;;;15.42;30.37;101735.97;7926179;28;20062;-65
2021/04/01 17:59:00;;;;;;;4.28;1.30;;;;;;;15.32;30.15;101725.25;7926379;28;20101;-66
2021/04/01 18:02:58;;;;;;;3.35;1.35;;;;;;;15.22;30.00;101737.41;7933641;28;20812;-67
2021/04/01 18:39:19;;;;;;;2.72;1.25;;;;;;;14.29;29.71;101783.56;7915135;28;20042;-66
2021/04/01 18:43:11;;;;;;;4.13;1.27;;;;;;;14.17;29.91;101787.00;7931105;28;20474;-67
2021/04/01 18:51:01;;;;;;;3.75;1.35;;;;;;;14.02;29.60;101800.41;7930820;28;20248;-66
2021/04/01 18:59:11;;;;;;;4.18;1.38;;;;;;;13.80;29.80;101808.91;7937288;28;20045;-67
2021/04/01 19:03:02;;;;;;;5.13;1.60;;;;;;;13.74;29.75;101815.41;7925091;28;20061;-67
2021/04/01 19:06:57;;;;;;;3.95;1.38;;;;;;;13.66;29.89;101822.97;7930929;28;20093;-67
2021/04/01 19:22:55;;;;;;;4.00;1.85;;;;;;;13.32;29.91;101849.75;7930495;28;20026;-67
2021/04/01 19:26:46;;;;;;;7.30;1.88;;;;;;;13.23;30.03;101856.47;7930240;28;20026;-67
2021/04/01 19:30:37;;;;;;;6.55;1.40;;;;;;;13.15;30.07;101856.09;7926701;28;20053;-66
2021/04/01 19:34:29;;;;;;;22.55;2.85;;;;;;;13.07;29.94;101860.13;7927272;28;20038;-66
2021/04/01 19:38:20;;;;;;;3.50;1.42;;;;;;;12.94;29.82;101862.66;7929917;28;20044;-66
2021/04/01 19:42:15;;;;;;;4.07;1.38;;;;;;;12.80;29.92;101857.38;7927713;28;20066;-67
2021/04/01 19:46:06;;;;;;;3.28;1.30;;;;;;;12.63;30.05;101868.06;7933834;28;20045;-66
2021/04/01 19:49:56;;;;;;;3.60;1.83;;;;;;;12.46;30.23;101880.44;7919963;28;20046;-66
2021/04/01 19:53:48;;;;;;;7.38;1.40;;;;;;;12.34;30.45;101881.13;7929708;28;20033;-65
2021/04/01 19:57:39;;;;;;;13.30;1.60;;;;;;;12.27;30.40;101882.41;7929197;28;20458;-67
2021/04/01 20:01:30;;;;;;;4.00;1.63;;;;;;;12.16;30.41;101889.22;7928187;28;20034;-66
2021/04/01 20:05:21;;;;;;;3.40;1.20;;;;;;;12.05;30.28;101895.97;7929230;28;20049;-65
2021/04/01 20:09:12;;;;;;;4.45;1.45;;;;;;;11.93;30.53;101906.34;7930914;28;20038;-65
2021/04/01 20:13:03;;;;;;;4.22;1.60;;;;;;;11.82;30.55;101920.06;7929130;28;20034;-65
2021/04/01 20:16:54;;;;;;;4.47;1.60;;;;;;;11.70;30.76;101922.50;7927646;28;20038;-65
2021/04/01 20:20:45;;;;;;;2.78;1.58;;;;;;;11.61;30.79;101919.44;7923977;28;20038;-65
2021/04/01 20:24:36;;;;;;;1.55;1.30;;;;;;;11.54;30.89;101925.09;7925160;28;20499;-65
2021/04/01 20:28:26;;;;;;;2.10;1.42;;;;;;;11.44;31.09;101924.72;7927990;28;20042;-65